createdAt,value
2022-10-31T00:01:40.344Z,53.20
2022-10-31T00:04:08.567Z,53.01
2022-10-31T00:06:36.629Z,53.07
2022-10-31T00:09:06.517Z,52.77
2022-10-31T00:11:34.594Z,52.87
2022-10-31T00:14:02.919Z,52.95
2022-10-31T00:16:31.719Z,53.01
2022-10-31T00:19:03.661Z,52.97
2022-10-31T00:21:33.068Z,53.03
2022-10-31T00:24:01.996Z,52.89
2022-10-31T00:26:31.969Z,52.96
2022-10-31T00:29:01.287Z,53.01
2022-10-31T00:31:29.836Z,53.00
2022-10-31T00:33:59.355Z,53.06
2022-10-31T00:36:28.497Z,53.04
2022-10-31T00:38:56.844Z,52.88
2022-10-31T00:41:25.982Z,53.13
2022-10-31T00:43:54.086Z,53.02
2022-10-31T00:46:22.147Z,53.01
2022-10-31T00:48:52.180Z,52.94
2022-10-31T00:51:20.381Z,53.25
2022-10-31T00:53:48.454Z,52.81
2022-10-31T00:56:16.638Z,53.01
2022-10-31T00:58:44.873Z,52.94
2022-10-31T01:01:13.300Z,52.96
2022-10-31T01:03:41.511Z,53.00
2022-10-31T01:06:14.608Z,53.03
2022-10-31T01:08:43.071Z,52.64
2022-10-31T01:11:32.496Z,53.10
2022-10-31T01:14:00.597Z,52.71
2022-10-31T01:16:30.614Z,52.68
2022-10-31T01:18:59.518Z,52.83
2022-10-31T01:21:30.701Z,52.81
2022-10-31T01:24:03.257Z,52.66
2022-10-31T01:26:33.707Z,52.88
2022-10-31T01:29:06.015Z,52.93
2022-10-31T01:31:38.652Z,52.89
2022-10-31T01:34:07.822Z,52.78
2022-10-31T01:36:39.141Z,52.90
2022-10-31T01:39:14.518Z,53.02
2022-10-31T01:41:50.051Z,52.99
2022-10-31T01:44:18.047Z,52.94
2022-10-31T01:46:52.208Z,52.93
2022-10-31T01:49:29.431Z,53.24
2022-10-31T01:52:26.052Z,52.95
2022-10-31T01:55:00.161Z,53.10
2022-10-31T01:57:30.260Z,52.81
2022-10-31T02:00:05.450Z,53.08
2022-10-31T02:02:42.954Z,52.94
2022-10-31T02:05:21.026Z,53.16
2022-10-31T02:08:19.609Z,53.07
2022-10-31T02:10:51.294Z,53.17
2022-10-31T02:13:20.847Z,53.32
2022-10-31T02:15:58.255Z,53.39
2022-10-31T02:18:31.486Z,53.45
2022-10-31T02:21:39.192Z,53.17
2022-10-31T02:24:49.141Z,53.39
2022-10-31T02:27:43.127Z,53.58
2022-10-31T02:30:19.610Z,53.45
2022-10-31T02:33:23.693Z,53.49
2022-10-31T02:36:16.157Z,53.46
2022-10-31T02:39:24.898Z,53.31
2022-10-31T02:42:24.542Z,53.33
2022-10-31T02:45:22.647Z,53.35
2022-10-31T02:47:56.292Z,53.48
2022-10-31T02:50:29.861Z,53.00
2022-10-31T02:52:57.792Z,52.95
2022-10-31T02:55:27.216Z,52.98
2022-10-31T02:58:06.280Z,53.12
2022-10-31T03:00:52.197Z,53.10
2022-10-31T03:03:48.342Z,52.83
2022-10-31T03:06:49.287Z,53.16
2022-10-31T03:09:50.151Z,53.40
2022-10-31T03:12:48.578Z,52.87
2022-10-31T03:15:35.373Z,52.85
2022-10-31T03:18:27.843Z,52.96
2022-10-31T03:21:15.826Z,52.64
2022-10-31T03:23:48.023Z,52.58
2022-10-31T03:26:24.107Z,52.75
2022-10-31T03:29:04.311Z,52.58
2022-10-31T03:31:43.003Z,53.02
2022-10-31T03:34:13.076Z,52.68
2022-10-31T03:36:42.597Z,52.98
2022-10-31T03:39:15.720Z,52.94
2022-10-31T03:41:54.624Z,52.91
2022-10-31T03:44:24.755Z,53.07
2022-10-31T03:47:01.091Z,52.87
2022-10-31T03:49:30.274Z,52.93
2022-10-31T03:52:36.734Z,52.95
2022-10-31T03:55:31.721Z,52.89
2022-10-31T03:58:09.339Z,52.81
2022-10-31T04:00:43.463Z,52.96
2022-10-31T04:03:22.343Z,52.64
2022-10-31T04:05:56.310Z,52.83
2022-10-31T04:08:33.293Z,52.93
2022-10-31T04:11:03.759Z,52.76
2022-10-31T04:13:36.999Z,52.85
2022-10-31T04:16:15.966Z,52.77
2022-10-31T04:18:45.666Z,52.83
2022-10-31T04:21:13.726Z,53.09
2022-10-31T04:23:41.835Z,53.01
2022-10-31T04:26:17.449Z,52.79
2022-10-31T04:28:45.794Z,52.95
2022-10-31T04:31:15.291Z,52.95
2022-10-31T04:33:45.800Z,52.81
2022-10-31T04:36:14.005Z,53.10
2022-10-31T04:38:43.400Z,53.14
2022-10-31T04:41:23.942Z,52.97
2022-10-31T04:43:59.849Z,53.04
2022-10-31T04:46:29.110Z,53.17
2022-10-31T04:48:59.012Z,53.16
2022-10-31T04:51:27.192Z,53.33
2022-10-31T04:53:55.421Z,53.16
2022-10-31T04:56:29.502Z,53.60
2022-10-31T04:59:00.701Z,53.41
2022-10-31T05:01:33.221Z,53.30
2022-10-31T05:04:02.504Z,53.66
2022-10-31T05:06:32.630Z,53.68
2022-10-31T05:09:01.078Z,53.59
2022-10-31T05:11:30.211Z,53.89
2022-10-31T05:14:08.375Z,53.53
2022-10-31T05:16:54.935Z,53.61
2022-10-31T05:19:43.209Z,53.76
2022-10-31T05:22:37.781Z,53.75
2022-10-31T05:25:06.491Z,53.73
2022-10-31T05:27:35.025Z,53.51
2022-10-31T05:30:03.257Z,53.75
2022-10-31T05:32:41.082Z,53.86
2022-10-31T05:35:32.881Z,53.56
2022-10-31T05:38:25.916Z,53.58
2022-10-31T05:41:01.200Z,53.79
2022-10-31T05:43:31.805Z,53.91
2022-10-31T05:46:00.724Z,53.74
2022-10-31T05:48:48.994Z,53.98
2022-10-31T05:51:37.254Z,53.87
2022-10-31T05:54:06.276Z,53.92
2022-10-31T05:56:34.335Z,53.91
2022-10-31T05:59:02.681Z,53.64
2022-10-31T06:01:30.961Z,53.65
2022-10-31T06:04:06.165Z,53.56
2022-10-31T06:06:35.783Z,53.79
2022-10-31T06:09:04.023Z,53.73
2022-10-31T06:11:35.909Z,54.09
2022-10-31T06:14:04.712Z,53.92
2022-10-31T06:16:58.834Z,54.02
2022-10-31T06:19:53.370Z,53.75
2022-10-31T06:22:23.807Z,53.72
2022-10-31T06:24:52.003Z,53.67
2022-10-31T06:27:28.246Z,54.05
2022-10-31T06:30:04.373Z,54.02
2022-10-31T06:32:33.890Z,54.17
2022-10-31T06:35:02.095Z,54.16
2022-10-31T06:37:30.293Z,54.23
2022-10-31T06:40:07.499Z,54.02
2022-10-31T06:43:01.748Z,54.02
2022-10-31T06:45:31.780Z,54.00
2022-10-31T06:48:18.684Z,53.74
2022-10-31T06:51:25.054Z,53.94
2022-10-31T06:53:53.231Z,54.08
2022-10-31T06:56:21.343Z,54.20
2022-10-31T06:58:53.617Z,54.21
2022-10-31T07:01:36.365Z,54.20
2022-10-31T07:04:05.002Z,54.24
2022-10-31T07:06:36.444Z,54.62
2022-10-31T07:09:05.369Z,54.42
2022-10-31T07:11:35.982Z,54.55
2022-10-31T07:14:04.533Z,54.75
2022-10-31T07:16:32.543Z,55.22
2022-10-31T07:19:01.320Z,54.97
2022-10-31T07:21:30.458Z,54.94
2022-10-31T07:23:58.684Z,54.89
2022-10-31T07:26:47.094Z,54.88
2022-10-31T07:29:16.065Z,55.01
2022-10-31T07:31:46.454Z,54.99
2022-10-31T07:34:21.254Z,54.89
2022-10-31T07:37:07.793Z,54.78
2022-10-31T07:39:36.981Z,54.86
2022-10-31T07:42:05.762Z,54.76
2022-10-31T07:44:35.160Z,54.91
2022-10-31T07:47:50.189Z,54.71
2022-10-31T07:50:37.235Z,54.70
2022-10-31T07:53:23.661Z,54.84
2022-10-31T07:55:55.725Z,54.81
2022-10-31T07:58:30.136Z,54.62
2022-10-31T08:01:00.576Z,54.76
2022-10-31T08:03:38.659Z,54.75
2022-10-31T08:06:25.103Z,54.82
2022-10-31T08:08:53.214Z,54.78
2022-10-31T08:11:21.387Z,54.94
2022-10-31T08:13:49.616Z,54.79
2022-10-31T08:16:17.806Z,54.79
2022-10-31T08:18:59.938Z,54.72
2022-10-31T08:21:31.238Z,54.69
2022-10-31T08:24:00.188Z,54.42
2022-10-31T08:26:30.664Z,54.42
2022-10-31T08:28:59.588Z,54.18
2022-10-31T08:31:33.940Z,54.13
2022-10-31T08:34:22.134Z,54.28
2022-10-31T08:37:08.458Z,54.14
2022-10-31T08:39:48.655Z,54.16
2022-10-31T08:42:16.736Z,54.05
2022-10-31T08:44:44.849Z,54.56
2022-10-31T08:47:13.410Z,55.13
2022-10-31T08:49:41.611Z,55.38
2022-10-31T08:52:14.319Z,55.27
2022-10-31T08:54:43.904Z,55.31
2022-10-31T08:57:31.750Z,55.09
2022-10-31T09:00:01.033Z,55.13
2022-10-31T09:02:44.624Z,54.98
2022-10-31T09:05:15.227Z,54.77
2022-10-31T09:07:43.280Z,54.84
2022-10-31T09:10:11.991Z,54.98
2022-10-31T09:12:40.197Z,54.83
2022-10-31T09:15:28.452Z,55.07
2022-10-31T09:18:17.251Z,55.07
2022-10-31T09:21:11.636Z,55.31
2022-10-31T09:23:40.296Z,55.26
2022-10-31T09:26:08.499Z,55.26
2022-10-31T09:28:46.346Z,55.31
2022-10-31T09:31:16.665Z,55.25
2022-10-31T09:33:56.061Z,55.53
2022-10-31T09:36:39.990Z,55.37
2022-10-31T09:39:22.099Z,54.79
2022-10-31T09:42:17.396Z,54.93
2022-10-31T09:45:20.545Z,54.80
2022-10-31T09:48:03.679Z,54.69
2022-10-31T09:50:42.270Z,54.49
2022-10-31T09:54:01.472Z,54.33
2022-10-31T09:56:31.592Z,54.26
2022-10-31T09:59:04.450Z,53.91
2022-10-31T10:01:59.095Z,54.22
2022-10-31T10:05:16.696Z,54.25
2022-10-31T10:08:09.171Z,54.02
2022-10-31T10:11:15.743Z,54.12
2022-10-31T10:14:20.932Z,54.14
2022-10-31T10:17:18.628Z,54.17
2022-10-31T10:20:26.940Z,53.94
2022-10-31T10:23:15.776Z,54.00
2022-10-31T10:25:50.680Z,54.00
2022-10-31T10:28:42.041Z,54.12
2022-10-31T10:31:29.950Z,53.63
2022-10-31T10:34:20.234Z,53.80
2022-10-31T10:37:28.513Z,53.91
2022-10-31T10:40:23.091Z,53.61
2022-10-31T10:43:20.005Z,53.65
2022-10-31T10:46:28.257Z,53.62
2022-10-31T10:49:19.502Z,53.61
2022-10-31T10:55:15.089Z,53.36
2022-10-31T10:57:58.380Z,53.06
2022-10-31T11:00:41.843Z,53.04
2022-10-31T11:03:11.977Z,52.64
2022-10-31T11:05:59.967Z,52.72
2022-10-31T11:08:37.305Z,52.32
2022-10-31T11:11:12.469Z,52.15
2022-10-31T11:13:43.644Z,52.01
2022-10-31T11:16:41.750Z,52.15
2022-10-31T11:19:28.050Z,52.03
2022-10-31T11:22:09.855Z,52.23
2022-10-31T11:24:42.351Z,52.27
2022-10-31T11:27:22.540Z,52.08
2022-10-31T11:29:53.647Z,52.01
2022-10-31T11:32:29.501Z,52.33
2022-10-31T11:35:04.905Z,52.33
2022-10-31T11:37:36.947Z,52.59
2022-10-31T11:40:08.031Z,52.32
2022-10-31T11:42:42.630Z,52.34
2022-10-31T11:45:28.677Z,51.97
2022-10-31T11:48:00.203Z,52.12
2022-10-31T11:50:38.286Z,52.24
2022-10-31T11:53:36.376Z,52.00
2022-10-31T11:56:18.033Z,51.31
2022-10-31T11:59:06.849Z,51.46
2022-10-31T12:01:35.228Z,50.81
2022-10-31T12:04:14.296Z,51.19
2022-10-31T12:06:47.178Z,50.57
2022-10-31T12:09:33.889Z,50.94
2022-10-31T12:12:43.703Z,51.13
2022-10-31T12:15:31.368Z,50.86
2022-10-31T12:18:51.804Z,51.39
2022-10-31T12:21:50.430Z,51.45
2022-10-31T12:24:33.872Z,51.22
2022-10-31T12:27:10.960Z,50.90
2022-10-31T12:29:50.704Z,50.48
2022-10-31T12:32:30.188Z,50.87
2022-10-31T12:35:43.517Z,50.73
2022-10-31T12:38:51.314Z,50.73
2022-10-31T12:41:49.850Z,50.84
2022-10-31T12:44:46.518Z,50.75
2022-10-31T12:47:43.205Z,50.05
2022-10-31T12:50:33.307Z,50.25
2022-10-31T12:54:16.623Z,50.15
2022-10-31T12:57:32.111Z,50.18
2022-10-31T13:00:19.558Z,49.83
2022-10-31T13:03:13.658Z,49.76
2022-10-31T13:05:46.056Z,49.93
2022-10-31T13:08:50.381Z,50.00
2022-10-31T13:11:23.240Z,49.70
2022-10-31T13:14:16.670Z,50.01
2022-10-31T13:16:48.924Z,50.02
2022-10-31T13:19:31.554Z,50.37
2022-10-31T13:22:08.765Z,50.07
2022-10-31T13:25:04.194Z,50.20
2022-10-31T13:28:01.056Z,50.61
2022-10-31T13:30:37.540Z,50.89
2022-10-31T13:33:18.222Z,50.55
2022-10-31T13:36:05.144Z,50.88
2022-10-31T13:38:48.713Z,50.56
2022-10-31T13:41:41.636Z,50.52
2022-10-31T13:44:25.120Z,50.02
2022-10-31T13:46:59.155Z,50.06
2022-10-31T13:49:30.137Z,49.86
2022-10-31T13:52:15.278Z,49.66
2022-10-31T13:54:49.926Z,49.68
2022-10-31T13:57:39.262Z,50.01
2022-10-31T14:00:22.570Z,49.61
2022-10-31T14:02:56.893Z,49.28
2022-10-31T14:05:36.877Z,49.46
2022-10-31T14:08:07.847Z,49.44
2022-10-31T14:10:48.120Z,49.85
2022-10-31T14:13:56.511Z,50.00
2022-10-31T14:16:29.688Z,49.82
2022-10-31T14:19:15.897Z,50.04
2022-10-31T14:21:47.310Z,50.37
2022-10-31T14:24:24.518Z,50.40
2022-10-31T14:27:01.005Z,50.27
2022-10-31T14:29:34.504Z,50.40
2022-10-31T14:32:14.561Z,50.17
2022-10-31T14:34:44.684Z,50.35
2022-10-31T14:37:40.281Z,50.48
2022-10-31T14:40:32.703Z,50.35
2022-10-31T14:43:47.211Z,50.31
2022-10-31T14:47:00.084Z,50.30
2022-10-31T14:49:59.217Z,50.20
2022-10-31T14:52:27.541Z,49.89
2022-10-31T14:55:00.558Z,50.20
2022-10-31T14:57:35.858Z,49.54
2022-10-31T15:00:17.469Z,49.42
2022-10-31T15:03:01.766Z,49.53
2022-10-31T15:05:31.152Z,49.19
2022-10-31T15:08:00.350Z,49.54
2022-10-31T15:10:37.756Z,49.45
2022-10-31T15:13:19.689Z,49.36
2022-10-31T15:15:52.046Z,49.27
2022-10-31T15:18:29.371Z,49.52
2022-10-31T15:20:58.296Z,49.41
2022-10-31T15:23:35.371Z,49.80
2022-10-31T15:26:06.460Z,49.82
2022-10-31T15:28:34.662Z,49.81
2022-10-31T15:31:04.350Z,49.79
2022-10-31T15:33:48.124Z,50.36
2022-10-31T15:36:29.068Z,50.36
2022-10-31T15:39:00.107Z,50.32
2022-10-31T15:42:00.828Z,50.20
2022-10-31T15:44:36.950Z,51.31
2022-10-31T15:47:19.925Z,51.22
2022-10-31T15:49:59.996Z,51.75
2022-10-31T15:52:45.292Z,52.16
2022-10-31T15:55:25.082Z,52.38
2022-10-31T15:58:06.007Z,52.94
2022-10-31T16:00:39.608Z,52.62
2022-10-31T16:03:16.581Z,51.86
2022-10-31T16:06:05.447Z,52.38
2022-10-31T16:08:37.248Z,52.81
2022-10-31T16:11:08.298Z,53.11
2022-10-31T16:14:15.166Z,53.22
2022-10-31T16:16:50.785Z,53.29
2022-10-31T16:19:22.105Z,53.63
2022-10-31T16:22:14.307Z,53.50
2022-10-31T16:24:53.333Z,53.34
2022-10-31T16:27:29.941Z,53.53
2022-10-31T16:30:05.493Z,53.54
2022-10-31T16:32:52.477Z,53.59
2022-10-31T16:35:40.960Z,53.26
2022-10-31T16:38:10.634Z,53.55
2022-10-31T16:40:40.148Z,53.80
2022-10-31T16:43:18.769Z,53.88
2022-10-31T16:45:52.632Z,54.05
2022-10-31T16:48:24.899Z,54.04
2022-10-31T16:50:54.547Z,54.09
2022-10-31T16:53:22.776Z,54.12
2022-10-31T16:56:00.301Z,54.34
2022-10-31T16:58:36.908Z,54.56
2022-10-31T17:01:09.789Z,54.52
2022-10-31T17:03:38.254Z,54.54
2022-10-31T17:06:06.551Z,54.65
2022-10-31T17:08:34.753Z,54.73
2022-10-31T17:11:03.922Z,54.67
2022-10-31T17:13:35.127Z,54.60
2022-10-31T17:16:04.881Z,54.57
2022-10-31T17:18:33.083Z,54.56
2022-10-31T17:21:06.229Z,54.54
2022-10-31T17:23:34.440Z,54.25
2022-10-31T17:26:02.518Z,54.37
2022-10-31T17:28:30.601Z,54.63
2022-10-31T17:30:59.497Z,54.55
2022-10-31T17:33:27.969Z,54.72
2022-10-31T17:35:56.157Z,54.95
2022-10-31T17:38:24.376Z,54.88
2022-10-31T17:40:52.426Z,54.86
2022-10-31T17:43:20.528Z,54.95
2022-10-31T17:45:48.592Z,55.07
2022-10-31T17:48:16.704Z,55.06
2022-10-31T17:50:44.759Z,55.21
2022-10-31T17:53:12.866Z,55.22
2022-10-31T17:55:40.921Z,55.26
2022-10-31T17:58:12.391Z,55.15
2022-10-31T18:00:47.236Z,55.02
2022-10-31T18:03:18.607Z,55.10
2022-10-31T18:05:59.322Z,54.91
2022-10-31T18:08:37.619Z,54.84
2022-10-31T18:11:17.222Z,54.94
2022-10-31T18:13:45.619Z,54.94
2022-10-31T18:16:19.367Z,55.26
2022-10-31T18:18:56.204Z,54.68
2022-10-31T18:21:24.264Z,55.16
2022-10-31T18:23:56.908Z,55.51
2022-10-31T18:26:27.292Z,55.49
2022-10-31T18:28:55.591Z,55.42
2022-10-31T18:31:24.184Z,55.36
2022-10-31T18:33:57.071Z,55.39
2022-10-31T18:36:25.746Z,55.29
2022-10-31T18:38:53.924Z,55.30
2022-10-31T18:41:22.151Z,55.36
2022-10-31T18:43:50.213Z,55.26
2022-10-31T18:46:18.804Z,55.37
2022-10-31T18:48:47.004Z,55.45
2022-10-31T18:51:16.014Z,55.20
2022-10-31T18:53:51.781Z,55.23
2022-10-31T18:56:20.105Z,55.36
2022-10-31T18:58:48.301Z,55.73
2022-10-31T19:01:18.810Z,55.78
2022-10-31T19:03:51.906Z,56.04
2022-10-31T19:06:20.013Z,56.01
2022-10-31T19:08:48.191Z,55.97
2022-10-31T19:11:16.754Z,56.24
2022-10-31T19:13:44.956Z,56.82
2022-10-31T19:16:17.029Z,57.04
2022-10-31T19:18:45.345Z,56.84
2022-10-31T19:21:18.205Z,56.85
2022-10-31T19:23:47.005Z,56.51
2022-10-31T19:26:15.251Z,56.54
2022-10-31T19:28:43.531Z,56.21
2022-10-31T19:31:12.006Z,56.10
2022-10-31T19:33:40.081Z,55.61
2022-10-31T19:36:14.978Z,55.49
2022-10-31T19:38:45.822Z,55.38
2022-10-31T19:41:19.783Z,55.26
2022-10-31T19:43:48.369Z,55.14
2022-10-31T19:46:22.756Z,54.98
2022-10-31T19:48:55.940Z,54.88
2022-10-31T19:51:24.114Z,54.80
2022-10-31T19:53:52.582Z,54.67
2022-10-31T19:56:23.789Z,54.73
2022-10-31T19:58:51.960Z,54.63
2022-10-31T20:01:23.823Z,54.71
2022-10-31T20:03:52.450Z,54.57
2022-10-31T20:06:29.441Z,54.57
2022-10-31T20:08:58.126Z,54.54
2022-10-31T20:11:29.089Z,54.60
2022-10-31T20:13:59.201Z,54.75
2022-10-31T20:16:28.245Z,54.66
2022-10-31T20:18:57.023Z,54.60
2022-10-31T20:21:28.244Z,54.58
2022-10-31T20:24:00.646Z,54.27
2022-10-31T20:26:31.601Z,54.35
2022-10-31T20:29:01.233Z,54.31
2022-10-31T20:31:34.975Z,54.13
2022-10-31T20:34:03.157Z,53.83
2022-10-31T20:36:31.358Z,53.64
2022-10-31T20:39:00.450Z,53.76
2022-10-31T20:41:28.843Z,53.81
2022-10-31T20:43:58.244Z,54.62
2022-10-31T20:46:27.768Z,55.17
2022-10-31T20:48:55.882Z,55.35
2022-10-31T20:51:28.999Z,55.48
2022-10-31T20:53:59.214Z,55.32
2022-10-31T20:56:28.764Z,55.58
2022-10-31T20:58:57.685Z,55.64
2022-10-31T21:01:37.117Z,55.61
2022-10-31T21:04:06.427Z,55.89
2022-10-31T21:06:35.372Z,56.18
2022-10-31T21:09:03.581Z,56.40
2022-10-31T21:11:31.780Z,56.60
2022-10-31T21:14:02.618Z,56.42
2022-10-31T21:16:35.983Z,56.54
2022-10-31T21:19:05.027Z,56.58
2022-10-31T21:21:36.714Z,56.71
2022-10-31T21:26:50.520Z,56.87
2022-10-31T21:29:20.489Z,56.68
2022-10-31T21:31:49.540Z,56.71
2022-10-31T21:34:17.853Z,56.66
2022-10-31T21:36:45.960Z,56.86
2022-10-31T21:39:14.139Z,56.97
2022-10-31T21:41:42.341Z,56.79
2022-10-31T21:44:10.424Z,56.92
2022-10-31T21:46:40.097Z,57.21
2022-10-31T21:49:10.668Z,57.05
2022-10-31T21:51:38.905Z,57.19
2022-10-31T21:54:25.676Z,57.30
2022-10-31T21:56:55.440Z,57.25
2022-10-31T21:59:23.760Z,57.30
2022-10-31T22:01:52.961Z,57.49
2022-10-31T22:04:21.123Z,57.43
2022-10-31T22:06:49.356Z,57.52
2022-10-31T22:09:19.937Z,57.39
2022-10-31T22:11:48.041Z,57.42
2022-10-31T22:14:16.214Z,57.37
2022-10-31T22:16:44.685Z,57.43
2022-10-31T22:19:14.781Z,57.37
2022-10-31T22:21:49.050Z,57.49
2022-10-31T22:24:18.652Z,57.28
2022-10-31T22:26:46.854Z,57.40
2022-10-31T22:29:18.751Z,57.30
2022-10-31T22:31:57.231Z,57.40
2022-10-31T22:34:28.713Z,57.13
2022-10-31T22:36:57.037Z,57.22
2022-10-31T22:39:25.239Z,57.05
2022-10-31T22:41:53.346Z,57.12
2022-10-31T22:44:21.433Z,57.10
2022-10-31T22:46:49.509Z,56.89
2022-10-31T22:49:17.568Z,56.63
2022-10-31T22:51:46.251Z,57.09
2022-10-31T22:54:18.568Z,56.81
2022-10-31T22:56:46.977Z,56.74
2022-10-31T22:59:17.125Z,56.91
2022-10-31T23:01:46.184Z,56.66
2022-10-31T23:04:16.609Z,56.92
2022-10-31T23:06:45.618Z,56.92
2022-10-31T23:09:17.021Z,56.78
2022-10-31T23:11:45.824Z,56.70
2022-10-31T23:14:20.854Z,56.84
2022-10-31T23:16:56.020Z,56.52
2022-10-31T23:19:29.980Z,56.51
2022-10-31T23:22:05.024Z,56.40
2022-10-31T23:24:42.471Z,56.33
2022-10-31T23:27:17.642Z,56.43
2022-10-31T23:29:54.568Z,56.23
2022-10-31T23:32:37.075Z,56.36
2022-10-31T23:35:10.678Z,56.10
2022-10-31T23:37:39.577Z,56.14
2022-10-31T23:40:08.906Z,56.16
2022-10-31T23:42:36.970Z,56.11
2022-10-31T23:45:05.409Z,56.04
2022-10-31T23:47:33.490Z,56.18
2022-10-31T23:50:01.548Z,56.07
2022-10-31T23:52:29.657Z,56.12
2022-10-31T23:54:59.873Z,56.04
2022-10-31T23:57:27.986Z,56.01
2022-10-31T23:59:56.039Z,56.03
